sensor_id;sensor_type;location;lat;lon;timestamp;pressure;altitude;pressure_sealevel;temperature;humidity
74372;BME280;62885;51.374;6.170;2023-01-26T00:01:57;102315.31;;;-0.98;91.46
74372;BME280;62885;51.374;6.170;2023-01-26T00:04:23;102313.56;;;-0.99;91.85
74372;BME280;62885;51.374;6.170;2023-01-26T00:06:48;102314.47;;;-1.00;92.16
74372;BME280;62885;51.374;6.170;2023-01-26T00:09:14;102310.97;;;-1.08;92.79
74372;BME280;62885;51.374;6.170;2023-01-26T00:11:40;102310.09;;;-1.08;93.77
74372;BME280;62885;51.374;6.170;2023-01-26T00:14:05;102298.69;;;-1.01;93.69
74372;BME280;62885;51.374;6.170;2023-01-26T00:16:31;102293.44;;;-1.03;93.10
74372;BME280;62885;51.374;6.170;2023-01-26T00:18:56;102296.91;;;-0.96;93.09
74372;BME280;62885;51.374;6.170;2023-01-26T00:21:22;102304.81;;;-1.02;94.02
74372;BME280;62885;51.374;6.170;2023-01-26T00:23:48;102297.81;;;-1.02;93.84
74372;BME280;62885;51.374;6.170;2023-01-26T00:26:25;102294.31;;;-1.04;93.51
74372;BME280;62885;51.374;6.170;2023-01-26T00:28:51;102297.84;;;-1.09;93.87
74372;BME280;62885;51.374;6.170;2023-01-26T00:31:27;102288.19;;;-1.00;93.71
74372;BME280;62885;51.374;6.170;2023-01-26T00:33:53;102296.94;;;-1.01;93.77
74372;BME280;62885;51.374;6.170;2023-01-26T00:36:19;102290.81;;;-1.00;93.51
74372;BME280;62885;51.374;6.170;2023-01-26T00:38:45;102276.81;;;-1.08;93.73
74372;BME280;62885;51.374;6.170;2023-01-26T00:41:11;102278.56;;;-1.05;93.62
74372;BME280;62885;51.374;6.170;2023-01-26T00:43:56;102275.97;;;-1.11;94.13
74372;BME280;62885;51.374;6.170;2023-01-26T00:46:21;102269.78;;;-1.00;94.11
74372;BME280;62885;51.374;6.170;2023-01-26T00:48:47;102267.16;;;-1.01;93.60
74372;BME280;62885;51.374;6.170;2023-01-26T00:51:12;102262.78;;;-1.02;93.79
74372;BME280;62885;51.374;6.170;2023-01-26T00:53:37;102254.88;;;-1.04;93.71
74372;BME280;62885;51.374;6.170;2023-01-26T00:56:03;102261.91;;;-1.01;94.05
74372;BME280;62885;51.374;6.170;2023-01-26T00:58:28;102254.03;;;-1.06;93.63
74372;BME280;62885;51.374;6.170;2023-01-26T01:00:54;102250.53;;;-1.06;93.50
74372;BME280;62885;51.374;6.170;2023-01-26T01:03:19;102244.41;;;-1.07;93.67
74372;BME280;62885;51.374;6.170;2023-01-26T01:05:44;102239.16;;;-1.05;94.05
74372;BME280;62885;51.374;6.170;2023-01-26T01:08:10;102241.75;;;-1.04;93.22
74372;BME280;62885;51.374;6.170;2023-01-26T01:10:35;102249.63;;;-1.04;93.85
74372;BME280;62885;51.374;6.170;2023-01-26T01:13:00;102241.75;;;-1.04;93.99
74372;BME280;62885;51.374;6.170;2023-01-26T01:15:26;102240.84;;;-0.95;93.10
74372;BME280;62885;51.374;6.170;2023-01-26T01:17:51;102240.03;;;-1.08;92.83
74372;BME280;62885;51.374;6.170;2023-01-26T01:20:16;102236.50;;;-1.02;93.19
74372;BME280;62885;51.374;6.170;2023-01-26T01:22:42;102237.38;;;-1.05;92.99
74372;BME280;62885;51.374;6.170;2023-01-26T01:25:07;102232.13;;;-1.00;92.84
74372;BME280;62885;51.374;6.170;2023-01-26T01:27:33;102233.88;;;-0.99;92.92
74372;BME280;62885;51.374;6.170;2023-01-26T01:29:58;102233.00;;;-1.01;93.29
74372;BME280;62885;51.374;6.170;2023-01-26T01:32:24;102228.63;;;-1.01;93.00
74372;BME280;62885;51.374;6.170;2023-01-26T01:34:49;102219.81;;;-0.95;93.05
74372;BME280;62885;51.374;6.170;2023-01-26T01:37:16;102225.03;;;-0.86;93.02
74372;BME280;62885;51.374;6.170;2023-01-26T01:39:41;102224.19;;;-0.91;92.62
74372;BME280;62885;51.374;6.170;2023-01-26T01:42:07;102233.88;;;-1.02;92.89
74372;BME280;62885;51.374;6.170;2023-01-26T01:44:37;102235.63;;;-1.01;93.16
74372;BME280;62885;51.374;6.170;2023-01-26T01:47:11;102229.47;;;-0.99;93.55
74372;BME280;62885;51.374;6.170;2023-01-26T01:49:45;102227.69;;;-0.92;93.17
74372;BME280;62885;51.374;6.170;2023-01-26T01:52:18;102230.34;;;-0.95;93.11
74372;BME280;62885;51.374;6.170;2023-01-26T01:54:53;102226.81;;;-0.91;93.18
74372;BME280;62885;51.374;6.170;2023-01-26T01:57:24;102226.81;;;-0.91;93.33
74372;BME280;62885;51.374;6.170;2023-01-26T02:00:03;102224.22;;;-0.94;93.75
74372;BME280;62885;51.374;6.170;2023-01-26T02:02:29;102211.91;;;-0.91;93.21
74372;BME280;62885;51.374;6.170;2023-01-26T02:04:56;102207.50;;;-0.86;93.27
74372;BME280;62885;51.374;6.170;2023-01-26T02:07:24;102207.50;;;-0.82;92.90
74372;BME280;62885;51.374;6.170;2023-01-26T02:09:50;102208.41;;;-0.93;93.38
74372;BME280;62885;51.374;6.170;2023-01-26T02:12:34;102203.16;;;-0.93;92.89
74372;BME280;62885;51.374;6.170;2023-01-26T02:15:01;102197.91;;;-0.88;93.42
74372;BME280;62885;51.374;6.170;2023-01-26T02:17:26;102194.34;;;-0.82;92.88
74372;BME280;62885;51.374;6.170;2023-01-26T02:20:15;102186.50;;;-0.92;92.93
74372;BME280;62885;51.374;6.170;2023-01-26T02:28:03;102182.13;;;-0.90;92.58
74372;BME280;62885;51.374;6.170;2023-01-26T02:30:29;102180.41;;;-0.95;93.70
74372;BME280;62885;51.374;6.170;2023-01-26T02:32:55;102186.53;;;-0.95;93.27
74372;BME280;62885;51.374;6.170;2023-01-26T02:35:21;102197.91;;;-0.90;93.16
74372;BME280;62885;51.374;6.170;2023-01-26T02:37:46;102197.88;;;-0.84;92.58
74372;BME280;62885;51.374;6.170;2023-01-26T02:40:28;102190.03;;;-0.97;92.65
74372;BME280;62885;51.374;6.170;2023-01-26T02:42:56;102183.94;;;-1.01;93.02
74372;BME280;62885;51.374;6.170;2023-01-26T02:45:22;102197.91;;;-0.99;92.56
74372;BME280;62885;51.374;6.170;2023-01-26T02:47:49;102192.66;;;-0.94;92.51
74372;BME280;62885;51.374;6.170;2023-01-26T02:50:14;102194.38;;;-0.92;92.87
74372;BME280;62885;51.374;6.170;2023-01-26T02:52:40;102185.63;;;-0.91;93.02
74372;BME280;62885;51.374;6.170;2023-01-26T02:55:06;102184.78;;;-0.94;92.71
74372;BME280;62885;51.374;6.170;2023-01-26T02:57:48;102189.19;;;-1.04;93.88
74372;BME280;62885;51.374;6.170;2023-01-26T03:00:19;102179.56;;;-1.09;93.44
74372;BME280;62885;51.374;6.170;2023-01-26T03:02:46;102182.16;;;-0.97;94.00
74372;BME280;62885;51.374;6.170;2023-01-26T03:05:13;102183.00;;;-0.91;93.76
74372;BME280;62885;51.374;6.170;2023-01-26T03:07:39;102190.00;;;-0.90;94.39
74372;BME280;62885;51.374;6.170;2023-01-26T03:10:05;102190.03;;;-0.97;93.97
74372;BME280;62885;51.374;6.170;2023-01-26T03:12:30;102189.13;;;-0.89;94.20
74372;BME280;62885;51.374;6.170;2023-01-26T03:14:56;102183.03;;;-0.95;94.01
74372;BME280;62885;51.374;6.170;2023-01-26T03:17:40;102177.78;;;-0.95;94.70
74372;BME280;62885;51.374;6.170;2023-01-26T03:20:06;102187.41;;;-0.94;94.28
74372;BME280;62885;51.374;6.170;2023-01-26T03:22:50;102181.31;;;-0.99;94.86
74372;BME280;62885;51.374;6.170;2023-01-26T03:25:35;102178.63;;;-0.90;95.52
74372;BME280;62885;51.374;6.170;2023-01-26T03:28:20;102170.72;;;-0.93;94.88
74372;BME280;62885;51.374;6.170;2023-01-26T03:30:49;102174.28;;;-0.94;95.55
74372;BME280;62885;51.374;6.170;2023-01-26T03:33:16;102170.75;;;-0.96;95.92
74372;BME280;62885;51.374;6.170;2023-01-26T03:35:42;102176.03;;;-0.96;95.82
74372;BME280;62885;51.374;6.170;2023-01-26T03:38:08;102181.25;;;-0.93;96.28
74372;BME280;62885;51.374;6.170;2023-01-26T03:40:33;102168.97;;;-0.90;96.00
74372;BME280;62885;51.374;6.170;2023-01-26T03:43:17;102166.38;;;-0.99;95.72
74372;BME280;62885;51.374;6.170;2023-01-26T03:46:05;102176.91;;;-0.97;96.66
74372;BME280;62885;51.374;6.170;2023-01-26T03:48:50;102176.88;;;-0.91;96.26
74372;BME280;62885;51.374;6.170;2023-01-26T03:51:34;102169.88;;;-0.94;95.96
74372;BME280;62885;51.374;6.170;2023-01-26T03:54:18;102157.56;;;-0.87;95.80
74372;BME280;62885;51.374;6.170;2023-01-26T03:57:02;102149.66;;;-0.87;96.20
74372;BME280;62885;51.374;6.170;2023-01-26T03:59:28;102149.63;;;-0.81;95.97
74372;BME280;62885;51.374;6.170;2023-01-26T04:02:03;102151.47;;;-0.89;96.42
74372;BME280;62885;51.374;6.170;2023-01-26T04:04:48;102148.81;;;-0.89;96.89
74372;BME280;62885;51.374;6.170;2023-01-26T04:07:32;102147.91;;;-0.84;96.19
74372;BME280;62885;51.374;6.170;2023-01-26T04:10:16;102151.38;;;-0.82;95.65
74372;BME280;62885;51.374;6.170;2023-01-26T04:12:42;102154.00;;;-0.77;95.29
74372;BME280;62885;51.374;6.170;2023-01-26T04:15:07;102150.50;;;-0.77;96.11
74372;BME280;62885;51.374;6.170;2023-01-26T04:17:51;102147.88;;;-0.76;95.85
74372;BME280;62885;51.374;6.170;2023-01-26T04:20:35;102140.88;;;-0.78;96.04
74372;BME280;62885;51.374;6.170;2023-01-26T04:23:19;102147.00;;;-0.81;95.14
74372;BME280;62885;51.374;6.170;2023-01-26T04:25:46;102153.13;;;-0.79;95.48
74372;BME280;62885;51.374;6.170;2023-01-26T04:28:11;102161.03;;;-0.79;95.86
74372;BME280;62885;51.374;6.170;2023-01-26T04:30:36;102150.47;;;-0.74;95.73
74372;BME280;62885;51.374;6.170;2023-01-26T04:33:03;102149.59;;;-0.73;94.94
74372;BME280;62885;51.374;6.170;2023-01-26T04:35:28;102154.84;;;-0.70;95.86
74372;BME280;62885;51.374;6.170;2023-01-26T04:37:54;102160.13;;;-0.75;95.49
74372;BME280;62885;51.374;6.170;2023-01-26T04:40:19;102158.34;;;-0.71;95.50
74372;BME280;62885;51.374;6.170;2023-01-26T04:42:45;102160.09;;;-0.72;95.40
74372;BME280;62885;51.374;6.170;2023-01-26T04:45:10;102164.44;;;-0.65;95.14
74372;BME280;62885;51.374;6.170;2023-01-26T04:47:36;102162.75;;;-0.75;95.49
74372;BME280;62885;51.374;6.170;2023-01-26T04:50:01;102157.53;;;-0.78;95.10
74372;BME280;62885;51.374;6.170;2023-01-26T04:52:27;102157.47;;;-0.75;95.37
74372;BME280;62885;51.374;6.170;2023-01-26T04:54:52;102149.59;;;-0.72;95.64
74372;BME280;62885;51.374;6.170;2023-01-26T04:57:17;102151.38;;;-0.77;95.93
74372;BME280;62885;51.374;6.170;2023-01-26T04:59:45;102151.34;;;-0.74;96.04
74372;BME280;62885;51.374;6.170;2023-01-26T05:02:10;102154.81;;;-0.69;96.13
74372;BME280;62885;51.374;6.170;2023-01-26T05:04:36;102160.94;;;-0.68;95.93
74372;BME280;62885;51.374;6.170;2023-01-26T05:07:01;102149.56;;;-0.67;95.54
74372;BME280;62885;51.374;6.170;2023-01-26T05:09:27;102153.91;;;-0.63;95.65
74372;BME280;62885;51.374;6.170;2023-01-26T05:11:52;102155.66;;;-0.61;95.32
74372;BME280;62885;51.374;6.170;2023-01-26T05:14:18;102150.38;;;-0.61;96.25
74372;BME280;62885;51.374;6.170;2023-01-26T05:16:43;102147.75;;;-0.61;96.42
74372;BME280;62885;51.374;6.170;2023-01-26T05:19:08;102147.75;;;-0.62;95.85
74372;BME280;62885;51.374;6.170;2023-01-26T05:21:34;102153.91;;;-0.59;95.64
74372;BME280;62885;51.374;6.170;2023-01-26T05:23:59;102148.63;;;-0.60;95.56
74372;BME280;62885;51.374;6.170;2023-01-26T05:26:24;102150.38;;;-0.61;95.70
74372;BME280;62885;51.374;6.170;2023-01-26T05:28:50;102147.75;;;-0.61;95.92
74372;BME280;62885;51.374;6.170;2023-01-26T05:31:15;102148.63;;;-0.62;96.25
74372;BME280;62885;51.374;6.170;2023-01-26T05:33:41;102152.97;;;-0.58;96.12
74372;BME280;62885;51.374;6.170;2023-01-26T05:36:07;102150.34;;;-0.55;95.91
74372;BME280;62885;51.374;6.170;2023-01-26T05:38:33;102154.72;;;-0.54;95.73
74372;BME280;62885;51.374;6.170;2023-01-26T05:40:58;102160.88;;;-0.56;95.79
74372;BME280;62885;51.374;6.170;2023-01-26T05:43:24;102152.09;;;-0.54;96.03
74372;BME280;62885;51.374;6.170;2023-01-26T05:45:49;102151.25;;;-0.60;95.85
74372;BME280;62885;51.374;6.170;2023-01-26T05:48:14;102151.22;;;-0.56;95.81
74372;BME280;62885;51.374;6.170;2023-01-26T05:50:40;102153.84;;;-0.53;95.74
74372;BME280;62885;51.374;6.170;2023-01-26T05:53:05;102151.22;;;-0.57;96.76
74372;BME280;62885;51.374;6.170;2023-01-26T05:55:31;102155.56;;;-0.52;96.33
74372;BME280;62885;51.374;6.170;2023-01-26T05:57:56;102154.69;;;-0.49;96.42
74372;BME280;62885;51.374;6.170;2023-01-26T06:00:22;102148.56;;;-0.51;96.28
74372;BME280;62885;51.374;6.170;2023-01-26T06:02:48;102152.06;;;-0.48;95.75
74372;BME280;62885;51.374;6.170;2023-01-26T06:05:14;102147.66;;;-0.47;96.72
74372;BME280;62885;51.374;6.170;2023-01-26T06:07:39;102147.66;;;-0.47;96.43
74372;BME280;62885;51.374;6.170;2023-01-26T06:10:05;102149.38;;;-0.42;96.15
74372;BME280;62885;51.374;6.170;2023-01-26T06:12:30;102151.97;;;-0.38;96.36
74372;BME280;62885;51.374;6.170;2023-01-26T06:15:00;102155.47;;;-0.38;95.72
74372;BME280;62885;51.374;6.170;2023-01-26T06:17:26;102162.50;;;-0.38;96.01
74372;BME280;62885;51.374;6.170;2023-01-26T06:19:52;102160.75;;;-0.38;96.10
74372;BME280;62885;51.374;6.170;2023-01-26T06:22:17;102166.00;;;-0.38;95.45
74372;BME280;62885;51.374;6.170;2023-01-26T06:24:42;102166.88;;;-0.37;95.44
74372;BME280;62885;51.374;6.170;2023-01-26T06:27:12;102153.72;;;-0.39;95.25
74372;BME280;62885;51.374;6.170;2023-01-26T06:29:37;102162.50;;;-0.38;95.92
74372;BME280;62885;51.374;6.170;2023-01-26T06:32:03;102164.25;;;-0.41;96.04
74372;BME280;62885;51.374;6.170;2023-01-26T06:34:28;102164.25;;;-0.41;95.88
74372;BME280;62885;51.374;6.170;2023-01-26T06:36:54;102158.97;;;-0.36;95.65
74372;BME280;62885;51.374;6.170;2023-01-26T06:39:20;102165.13;;;-0.37;95.87
74372;BME280;62885;51.374;6.170;2023-01-26T06:41:45;102166.00;;;-0.36;96.20
74372;BME280;62885;51.374;6.170;2023-01-26T06:44:11;102158.09;;;-0.36;96.10
74372;BME280;62885;51.374;6.170;2023-01-26T06:46:37;102166.84;;;-0.31;95.81
74372;BME280;62885;51.374;6.170;2023-01-26T06:49:03;102162.44;;;-0.32;96.28
74372;BME280;62885;51.374;6.170;2023-01-26T06:54:24;102172.03;;;-0.25;96.45
74372;BME280;62885;51.374;6.170;2023-01-26T06:56:50;102165.94;;;-0.30;96.00
74372;BME280;62885;51.374;6.170;2023-01-26T06:59:15;102170.34;;;-0.31;96.32
74372;BME280;62885;51.374;6.170;2023-01-26T07:01:43;102163.28;;;-0.26;96.05
74372;BME280;62885;51.374;6.170;2023-01-26T07:04:09;102165.03;;;-0.25;96.63
74372;BME280;62885;51.374;6.170;2023-01-26T07:06:35;102166.78;;;-0.27;96.10
74372;BME280;62885;51.374;6.170;2023-01-26T07:09:00;102177.31;;;-0.24;96.42
74372;BME280;62885;51.374;6.170;2023-01-26T07:11:26;102175.50;;;-0.22;96.36
74372;BME280;62885;51.374;6.170;2023-01-26T07:13:54;102177.31;;;-0.25;96.72
74372;BME280;62885;51.374;6.170;2023-01-26T07:16:19;102172.88;;;-0.22;96.37
74372;BME280;62885;51.374;6.170;2023-01-26T07:18:45;102171.16;;;-0.26;95.99
74372;BME280;62885;51.374;6.170;2023-01-26T07:21:14;102166.75;;;-0.22;96.23
74372;BME280;62885;51.374;6.170;2023-01-26T07:23:40;102176.38;;;-0.20;96.33
74372;BME280;62885;51.374;6.170;2023-01-26T07:26:05;102170.25;;;-0.20;95.93
74372;BME280;62885;51.374;6.170;2023-01-26T07:28:31;102174.56;;;-0.13;96.13
74372;BME280;62885;51.374;6.170;2023-01-26T07:30:59;102177.22;;;-0.15;96.34
74372;BME280;62885;51.374;6.170;2023-01-26T07:33:25;102170.19;;;-0.13;96.12
74372;BME280;62885;51.374;6.170;2023-01-26T07:35:52;102172.78;;;-0.11;95.96
74372;BME280;62885;51.374;6.170;2023-01-26T07:38:18;102177.16;;;-0.12;95.92
74372;BME280;62885;51.374;6.170;2023-01-26T07:40:43;102175.47;;;-0.17;96.36
74372;BME280;62885;51.374;6.170;2023-01-26T07:43:09;102176.31;;;-0.12;96.29
74372;BME280;62885;51.374;6.170;2023-01-26T07:45:35;102186.88;;;-0.15;96.30
74372;BME280;62885;51.374;6.170;2023-01-26T07:48:00;102194.75;;;-0.12;96.25
74372;BME280;62885;51.374;6.170;2023-01-26T07:50:25;102187.69;;;-0.09;96.24
74372;BME280;62885;51.374;6.170;2023-01-26T07:52:51;102194.66;;;-0.05;96.02
74372;BME280;62885;51.374;6.170;2023-01-26T07:55:17;102194.69;;;-0.06;95.53
74372;BME280;62885;51.374;6.170;2023-01-26T07:57:47;102197.28;;;0.00;95.88
74372;BME280;62885;51.374;6.170;2023-01-26T08:00:13;102199.88;;;0.03;95.32
74372;BME280;62885;51.374;6.170;2023-01-26T08:02:39;102203.38;;;0.05;95.35
74372;BME280;62885;51.374;6.170;2023-01-26T08:05:04;102199.88;;;0.03;94.97
74372;BME280;62885;51.374;6.170;2023-01-26T08:07:30;102207.75;;;0.05;95.32
74372;BME280;62885;51.374;6.170;2023-01-26T08:09:56;102205.09;;;0.06;96.01
74372;BME280;62885;51.374;6.170;2023-01-26T08:12:23;102205.13;;;0.05;95.65
74372;BME280;62885;51.374;6.170;2023-01-26T08:14:48;102206.91;;;0.01;95.98
74372;BME280;62885;51.374;6.170;2023-01-26T08:17:14;102192.91;;;-0.04;96.09
74372;BME280;62885;51.374;6.170;2023-01-26T08:19:41;102201.59;;;0.07;96.12
74372;BME280;62885;51.374;6.170;2023-01-26T08:22:07;102202.47;;;0.06;96.33
74372;BME280;62885;51.374;6.170;2023-01-26T08:24:32;102205.13;;;0.03;96.08
74372;BME280;62885;51.374;6.170;2023-01-26T08:26:57;102204.22;;;0.07;96.05
74372;BME280;62885;51.374;6.170;2023-01-26T08:29:23;102210.34;;;0.09;96.10
74372;BME280;62885;51.374;6.170;2023-01-26T08:31:48;102211.19;;;0.13;96.19
74372;BME280;62885;51.374;6.170;2023-01-26T08:34:13;102217.31;;;0.16;96.26
74372;BME280;62885;51.374;6.170;2023-01-26T08:36:39;102213.81;;;0.13;96.73
74372;BME280;62885;51.374;6.170;2023-01-26T08:39:05;102216.44;;;0.16;96.71
74372;BME280;62885;51.374;6.170;2023-01-26T08:41:30;102214.69;;;0.15;96.74
74372;BME280;62885;51.374;6.170;2023-01-26T08:43:57;102212.94;;;0.12;96.63
74372;BME280;62885;51.374;6.170;2023-01-26T08:46:26;102214.69;;;0.16;97.34
74372;BME280;62885;51.374;6.170;2023-01-26T08:48:52;102207.63;;;0.20;96.48
74372;BME280;62885;51.374;6.170;2023-01-26T08:51:17;102209.31;;;0.25;96.47
74372;BME280;62885;51.374;6.170;2023-01-26T08:53:43;102214.59;;;0.24;96.34
74372;BME280;62885;51.374;6.170;2023-01-26T08:56:10;102220.72;;;0.29;96.61
74372;BME280;62885;51.374;6.170;2023-01-26T08:58:36;102211.00;;;0.31;96.44
74372;BME280;62885;51.374;6.170;2023-01-26T09:01:06;102221.56;;;0.29;97.54
74372;BME280;62885;51.374;6.170;2023-01-26T09:03:32;102210.19;;;0.29;97.32
74372;BME280;62885;51.374;6.170;2023-01-26T09:05:59;102213.63;;;0.34;97.43
74372;BME280;62885;51.374;6.170;2023-01-26T09:08:24;102221.50;;;0.37;96.63
74372;BME280;62885;51.374;6.170;2023-01-26T09:10:50;102218.91;;;0.34;96.28
74372;BME280;62885;51.374;6.170;2023-01-26T09:13:15;102224.19;;;0.32;96.52
74372;BME280;62885;51.374;6.170;2023-01-26T09:15:40;102220.66;;;0.33;96.36
74372;BME280;62885;51.374;6.170;2023-01-26T09:18:06;102222.47;;;0.28;97.09
74372;BME280;62885;51.374;6.170;2023-01-26T09:20:31;102225.88;;;0.36;97.07
74372;BME280;62885;51.374;6.170;2023-01-26T09:22:57;102232.91;;;0.36;97.56
74372;BME280;62885;51.374;6.170;2023-01-26T09:25:22;102228.47;;;0.41;96.87
74372;BME280;62885;51.374;6.170;2023-01-26T09:27:47;102232.84;;;0.42;96.65
74372;BME280;62885;51.374;6.170;2023-01-26T09:30:13;102237.19;;;0.48;97.22
74372;BME280;62885;51.374;6.170;2023-01-26T09:32:38;102234.50;;;0.54;97.31
74372;BME280;62885;51.374;6.170;2023-01-26T09:35:04;102224.00;;;0.52;97.01
74372;BME280;62885;51.374;6.170;2023-01-26T09:37:29;102235.41;;;0.50;96.98
74372;BME280;62885;51.374;6.170;2023-01-26T09:39:55;102227.47;;;0.56;96.95
74372;BME280;62885;51.374;6.170;2023-01-26T09:42:44;102227.47;;;0.56;97.13
74372;BME280;62885;51.374;6.170;2023-01-26T09:45:45;102229.16;;;0.61;96.80
74372;BME280;62885;51.374;6.170;2023-01-26T09:48:21;102230.91;;;0.61;96.78
74372;BME280;62885;51.374;6.170;2023-01-26T09:51:05;102228.28;;;0.59;96.31
74372;BME280;62885;51.374;6.170;2023-01-26T09:53:38;102231.75;;;0.64;97.09
74372;BME280;62885;51.374;6.170;2023-01-26T09:56:07;102227.38;;;0.63;96.37
74372;BME280;62885;51.374;6.170;2023-01-26T09:58:38;102228.25;;;0.64;97.27
74372;BME280;62885;51.374;6.170;2023-01-26T10:01:15;102225.59;;;0.65;96.82
74372;BME280;62885;51.374;6.170;2023-01-26T10:08:41;102225.50;;;0.74;97.21
74372;BME280;62885;51.374;6.170;2023-01-26T10:11:15;102223.75;;;0.73;96.92
74372;BME280;62885;51.374;6.170;2023-01-26T10:13:47;102228.97;;;0.76;95.89
74372;BME280;62885;51.374;6.170;2023-01-26T10:16:15;102217.63;;;0.71;96.72
74372;BME280;62885;51.374;6.170;2023-01-26T10:21:14;102214.00;;;0.80;96.35
74372;BME280;62885;51.374;6.170;2023-01-26T10:23:46;102219.22;;;0.86;96.38
74372;BME280;62885;51.374;6.170;2023-01-26T10:26:18;102221.81;;;0.89;96.07
74372;BME280;62885;51.374;6.170;2023-01-26T10:28:45;102218.25;;;0.93;95.79
74372;BME280;62885;51.374;6.170;2023-01-26T10:31:20;102206.84;;;0.93;95.50
74372;BME280;62885;51.374;6.170;2023-01-26T10:33:56;102213.88;;;0.91;95.75
74372;BME280;62885;51.374;6.170;2023-01-26T10:36:22;102215.63;;;0.93;95.26
74372;BME280;62885;51.374;6.170;2023-01-26T10:38:49;102206.78;;;0.94;96.10
74372;BME280;62885;51.374;6.170;2023-01-26T10:43:52;102207.66;;;0.95;95.39
74372;BME280;62885;51.374;6.170;2023-01-26T10:46:41;102215.50;;;0.99;95.42
74372;BME280;62885;51.374;6.170;2023-01-26T10:51:43;102218.28;;;0.90;97.03
74372;BME280;62885;51.374;6.170;2023-01-26T10:54:23;102221.78;;;0.92;96.40
74372;BME280;62885;51.374;6.170;2023-01-26T10:57:04;102218.22;;;0.95;96.72
74372;BME280;62885;51.374;6.170;2023-01-26T10:59:50;102212.97;;;0.93;97.01
74372;BME280;62885;51.374;6.170;2023-01-26T11:02:22;102212.13;;;0.90;96.89
74372;BME280;62885;51.374;6.170;2023-01-26T11:05:24;102214.75;;;0.93;97.45
74372;BME280;62885;51.374;6.170;2023-01-26T11:07:54;102219.97;;;0.94;97.89
74372;BME280;62885;51.374;6.170;2023-01-26T11:10:36;102212.91;;;0.98;98.04
74372;BME280;62885;51.374;6.170;2023-01-26T11:13:06;102205.78;;;1.06;98.49
74372;BME280;62885;51.374;6.170;2023-01-26T11:15:40;102203.09;;;1.09;98.28
74372;BME280;62885;51.374;6.170;2023-01-26T11:37:44;102201.22;;;1.18;97.93
74372;BME280;62885;51.374;6.170;2023-01-26T11:43:05;102195.00;;;1.22;98.16
74372;BME280;62885;51.374;6.170;2023-01-26T11:48:50;102192.25;;;1.29;98.85
74372;BME280;62885;51.374;6.170;2023-01-26T11:56:37;102175.38;;;1.43;98.38
74372;BME280;62885;51.374;6.170;2023-01-26T11:59:20;102178.78;;;1.50;97.82
74372;BME280;62885;51.374;6.170;2023-01-26T12:04:22;102171.78;;;1.47;98.52
74372;BME280;62885;51.374;6.170;2023-01-26T12:06:53;102170.06;;;1.45;98.18
74372;BME280;62885;51.374;6.170;2023-01-26T12:09:40;102168.31;;;1.44;98.44
74372;BME280;62885;51.374;6.170;2023-01-26T12:15:18;102153.38;;;1.43;98.45
74372;BME280;62885;51.374;6.170;2023-01-26T12:17:59;102157.69;;;1.50;98.62
74372;BME280;62885;51.374;6.170;2023-01-26T12:20:35;102163.78;;;1.52;98.34
74372;BME280;62885;51.374;6.170;2023-01-26T12:23:09;102161.09;;;1.55;99.53
74372;BME280;62885;51.374;6.170;2023-01-26T12:25:49;102159.38;;;1.54;98.76
74372;BME280;62885;51.374;6.170;2023-01-26T12:28:23;102144.31;;;1.59;98.95
74372;BME280;62885;51.374;6.170;2023-01-26T12:33:17;102147.75;;;1.64;99.47
74372;BME280;62885;51.374;6.170;2023-01-26T12:41:02;102144.97;;;1.75;99.48
74372;BME280;62885;51.374;6.170;2023-01-26T12:46:13;102129.81;;;1.84;99.58
74372;BME280;62885;51.374;6.170;2023-01-26T12:48:51;102134.16;;;1.88;99.55
74372;BME280;62885;51.374;6.170;2023-01-26T12:51:31;102135.03;;;1.87;99.96
74372;BME280;62885;51.374;6.170;2023-01-26T12:56:34;102136.56;;;2.02;100.00
74372;BME280;62885;51.374;6.170;2023-01-26T12:59:14;102129.44;;;2.05;100.00
74372;BME280;62885;51.374;6.170;2023-01-26T13:01:41;102118.00;;;2.05;100.00
74372;BME280;62885;51.374;6.170;2023-01-26T13:04:12;102118.00;;;2.05;100.00
74372;BME280;62885;51.374;6.170;2023-01-26T13:06:38;102122.38;;;2.06;100.00
74372;BME280;62885;51.374;6.170;2023-01-26T13:09:22;102128.50;;;2.10;100.00
74372;BME280;62885;51.374;6.170;2023-01-26T13:11:53;102123.22;;;2.10;100.00
74372;BME280;62885;51.374;6.170;2023-01-26T13:14:29;102121.50;;;2.05;100.00
74372;BME280;62885;51.374;6.170;2023-01-26T13:16:56;102119.66;;;2.11;100.00
74372;BME280;62885;51.374;6.170;2023-01-26T13:19:35;102116.97;;;2.14;100.00
74372;BME280;62885;51.374;6.170;2023-01-26T13:24:57;102114.84;;;2.32;100.00
74372;BME280;62885;51.374;6.170;2023-01-26T13:27:31;102107.81;;;2.31;100.00
74372;BME280;62885;51.374;6.170;2023-01-26T13:29:56;102108.59;;;2.36;100.00
74372;BME280;62885;51.374;6.170;2023-01-26T13:34:50;102113.53;;;2.55;100.00
74372;BME280;62885;51.374;6.170;2023-01-26T13:37:44;102115.09;;;2.63;100.00
74372;BME280;62885;51.374;6.170;2023-01-26T13:40:33;102120.34;;;2.66;100.00
74372;BME280;62885;51.374;6.170;2023-01-26T13:43:20;102119.34;;;2.72;100.00
74372;BME280;62885;51.374;6.170;2023-01-26T13:46:01;102107.97;;;2.67;100.00
74372;BME280;62885;51.374;6.170;2023-01-26T13:51:07;102105.25;;;2.71;100.00
74372;BME280;62885;51.374;6.170;2023-01-26T13:53:40;102106.88;;;2.77;100.00
74372;BME280;62885;51.374;6.170;2023-01-26T13:56:19;102111.25;;;2.79;100.00
74372;BME280;62885;51.374;6.170;2023-01-26T13:58:45;102108.53;;;2.82;100.00
74372;BME280;62885;51.374;6.170;2023-01-26T14:01:13;102118.13;;;2.86;100.00
74372;BME280;62885;51.374;6.170;2023-01-26T14:03:39;102110.06;;;2.93;100.00
74372;BME280;62885;51.374;6.170;2023-01-26T14:06:14;102115.19;;;3.00;100.00
74372;BME280;62885;51.374;6.170;2023-01-26T14:08:42;102111.50;;;3.07;100.00
74372;BME280;62885;51.374;6.170;2023-01-26T14:11:15;102116.72;;;3.10;100.00
74372;BME280;62885;51.374;6.170;2023-01-26T14:13:42;102116.78;;;3.07;100.00
74372;BME280;62885;51.374;6.170;2023-01-26T14:16:19;102110.41;;;3.16;100.00
74372;BME280;62885;51.374;6.170;2023-01-26T14:18:47;102116.41;;;3.24;100.00
74372;BME280;62885;51.374;6.170;2023-01-26T14:21:16;102122.47;;;3.29;100.00
74372;BME280;62885;51.374;6.170;2023-01-26T14:23:42;102113.50;;;3.35;100.00